sensor_id;sensor_type;location;lat;lon;timestamp;P1;durP1;ratioP1;P2;durP2;ratioP2
35578;SDS011;21687;48.900;9.188;2023-07-20T00:01:26;3.30;;;2.10;;
35578;SDS011;21687;48.900;9.188;2023-07-20T00:03:53;2.70;;;2.00;;
35578;SDS011;21687;48.900;9.188;2023-07-20T00:06:23;4.23;;;2.10;;
35578;SDS011;21687;48.900;9.188;2023-07-20T00:08:53;3.93;;;2.40;;
35578;SDS011;21687;48.900;9.188;2023-07-20T00:11:20;4.17;;;2.50;;
35578;SDS011;21687;48.900;9.188;2023-07-20T00:13:50;2.67;;;2.10;;
35578;SDS011;21687;48.900;9.188;2023-07-20T00:16:17;4.63;;;2.03;;
35578;SDS011;21687;48.900;9.188;2023-07-20T00:18:43;4.73;;;1.93;;
35578;SDS011;21687;48.900;9.188;2023-07-20T00:21:09;2.70;;;2.13;;
35578;SDS011;21687;48.900;9.188;2023-07-20T00:23:36;3.40;;;2.00;;
35578;SDS011;21687;48.900;9.188;2023-07-20T00:26:02;2.70;;;2.07;;
35578;SDS011;21687;48.900;9.188;2023-07-20T00:28:29;3.20;;;2.47;;
35578;SDS011;21687;48.900;9.188;2023-07-20T00:30:55;2.57;;;1.97;;
35578;SDS011;21687;48.900;9.188;2023-07-20T00:33:21;3.67;;;2.00;;
35578;SDS011;21687;48.900;9.188;2023-07-20T00:35:48;2.10;;;1.90;;
35578;SDS011;21687;48.900;9.188;2023-07-20T00:38:15;2.20;;;2.00;;
35578;SDS011;21687;48.900;9.188;2023-07-20T00:40:41;3.03;;;2.33;;
35578;SDS011;21687;48.900;9.188;2023-07-20T00:43:08;2.37;;;2.13;;
35578;SDS011;21687;48.900;9.188;2023-07-20T00:45:34;2.80;;;2.20;;
35578;SDS011;21687;48.900;9.188;2023-07-20T00:48:03;3.27;;;2.37;;
35578;SDS011;21687;48.900;9.188;2023-07-20T00:50:31;2.30;;;2.10;;
35578;SDS011;21687;48.900;9.188;2023-07-20T00:52:58;3.57;;;2.50;;
35578;SDS011;21687;48.900;9.188;2023-07-20T00:55:26;4.13;;;2.33;;
35578;SDS011;21687;48.900;9.188;2023-07-20T00:57:53;3.93;;;2.30;;
35578;SDS011;21687;48.900;9.188;2023-07-20T01:00:20;3.57;;;2.30;;
35578;SDS011;21687;48.900;9.188;2023-07-20T01:02:46;2.03;;;1.87;;
35578;SDS011;21687;48.900;9.188;2023-07-20T01:05:12;3.23;;;2.30;;
35578;SDS011;21687;48.900;9.188;2023-07-20T01:08:06;3.33;;;2.20;;
35578;SDS011;21687;48.900;9.188;2023-07-20T01:14:22;3.10;;;2.10;;
35578;SDS011;21687;48.900;9.188;2023-07-20T01:16:50;3.27;;;1.90;;
35578;SDS011;21687;48.900;9.188;2023-07-20T01:19:17;3.63;;;2.20;;
35578;SDS011;21687;48.900;9.188;2023-07-20T01:21:46;2.10;;;1.90;;
35578;SDS011;21687;48.900;9.188;2023-07-20T01:24:48;3.43;;;2.30;;
35578;SDS011;21687;48.900;9.188;2023-07-20T01:28:14;2.63;;;2.03;;
35578;SDS011;21687;48.900;9.188;2023-07-20T01:33:20;3.37;;;1.87;;
35578;SDS011;21687;48.900;9.188;2023-07-20T01:35:51;2.07;;;1.80;;
35578;SDS011;21687;48.900;9.188;2023-07-20T01:38:21;2.00;;;1.80;;
35578;SDS011;21687;48.900;9.188;2023-07-20T01:40:49;3.60;;;2.03;;
35578;SDS011;21687;48.900;9.188;2023-07-20T01:43:17;2.20;;;2.00;;
35578;SDS011;21687;48.900;9.188;2023-07-20T01:45:44;2.70;;;2.10;;
35578;SDS011;21687;48.900;9.188;2023-07-20T01:48:10;4.13;;;2.10;;
35578;SDS011;21687;48.900;9.188;2023-07-20T01:50:36;8.83;;;2.13;;
35578;SDS011;21687;48.900;9.188;2023-07-20T01:53:03;2.43;;;1.93;;
35578;SDS011;21687;48.900;9.188;2023-07-20T01:55:30;3.80;;;1.80;;
35578;SDS011;21687;48.900;9.188;2023-07-20T01:57:56;2.40;;;1.93;;
35578;SDS011;21687;48.900;9.188;2023-07-20T02:00:24;2.07;;;1.87;;
35578;SDS011;21687;48.900;9.188;2023-07-20T02:02:51;3.80;;;2.10;;
35578;SDS011;21687;48.900;9.188;2023-07-20T02:05:17;2.27;;;1.67;;
35578;SDS011;21687;48.900;9.188;2023-07-20T02:07:43;2.63;;;2.27;;
35578;SDS011;21687;48.900;9.188;2023-07-20T02:10:10;4.33;;;1.90;;
35578;SDS011;21687;48.900;9.188;2023-07-20T02:12:36;4.33;;;2.00;;
35578;SDS011;21687;48.900;9.188;2023-07-20T02:15:04;3.33;;;1.90;;
35578;SDS011;21687;48.900;9.188;2023-07-20T02:17:31;2.40;;;2.20;;
35578;SDS011;21687;48.900;9.188;2023-07-20T02:19:57;2.67;;;2.10;;
35578;SDS011;21687;48.900;9.188;2023-07-20T02:22:24;4.03;;;2.50;;
35578;SDS011;21687;48.900;9.188;2023-07-20T02:24:50;3.47;;;2.23;;
35578;SDS011;21687;48.900;9.188;2023-07-20T02:27:16;2.73;;;2.03;;
35578;SDS011;21687;48.900;9.188;2023-07-20T02:29:43;3.27;;;2.50;;
35578;SDS011;21687;48.900;9.188;2023-07-20T02:32:09;2.93;;;2.13;;
35578;SDS011;21687;48.900;9.188;2023-07-20T02:34:36;2.93;;;2.17;;
35578;SDS011;21687;48.900;9.188;2023-07-20T02:37:02;4.07;;;2.10;;
35578;SDS011;21687;48.900;9.188;2023-07-20T02:39:29;3.77;;;2.47;;
35578;SDS011;21687;48.900;9.188;2023-07-20T02:41:55;3.03;;;2.40;;
35578;SDS011;21687;48.900;9.188;2023-07-20T02:44:22;3.80;;;2.10;;
35578;SDS011;21687;48.900;9.188;2023-07-20T02:46:49;3.00;;;2.37;;
35578;SDS011;21687;48.900;9.188;2023-07-20T02:49:15;3.60;;;2.07;;
35578;SDS011;21687;48.900;9.188;2023-07-20T02:51:41;4.33;;;2.50;;
35578;SDS011;21687;48.900;9.188;2023-07-20T02:54:08;2.50;;;2.30;;
35578;SDS011;21687;48.900;9.188;2023-07-20T02:56:34;3.00;;;2.37;;
35578;SDS011;21687;48.900;9.188;2023-07-20T02:59:01;2.63;;;2.30;;
35578;SDS011;21687;48.900;9.188;2023-07-20T03:01:28;4.43;;;2.30;;
35578;SDS011;21687;48.900;9.188;2023-07-20T03:03:55;3.73;;;2.50;;
35578;SDS011;21687;48.900;9.188;2023-07-20T03:06:21;4.30;;;2.57;;
35578;SDS011;21687;48.900;9.188;2023-07-20T03:08:48;3.83;;;2.23;;
35578;SDS011;21687;48.900;9.188;2023-07-20T03:11:17;2.90;;;2.43;;
35578;SDS011;21687;48.900;9.188;2023-07-20T03:13:45;5.00;;;2.13;;
35578;SDS011;21687;48.900;9.188;2023-07-20T03:16:13;6.50;;;2.70;;
35578;SDS011;21687;48.900;9.188;2023-07-20T03:18:44;2.63;;;2.40;;
35578;SDS011;21687;48.900;9.188;2023-07-20T03:21:11;4.73;;;2.73;;
35578;SDS011;21687;48.900;9.188;2023-07-20T03:23:37;6.67;;;2.77;;
35578;SDS011;21687;48.900;9.188;2023-07-20T03:26:04;4.47;;;2.73;;
35578;SDS011;21687;48.900;9.188;2023-07-20T03:28:33;3.03;;;2.43;;
35578;SDS011;21687;48.900;9.188;2023-07-20T03:31:00;3.57;;;2.50;;
35578;SDS011;21687;48.900;9.188;2023-07-20T03:33:28;3.87;;;2.20;;
35578;SDS011;21687;48.900;9.188;2023-07-20T03:35:56;2.63;;;2.33;;
35578;SDS011;21687;48.900;9.188;2023-07-20T03:38:23;3.07;;;2.07;;
35578;SDS011;21687;48.900;9.188;2023-07-20T03:40:50;3.80;;;2.50;;
35578;SDS011;21687;48.900;9.188;2023-07-20T03:43:26;4.30;;;2.20;;
35578;SDS011;21687;48.900;9.188;2023-07-20T03:45:53;3.20;;;2.23;;
35578;SDS011;21687;48.900;9.188;2023-07-20T03:48:21;5.80;;;2.67;;
35578;SDS011;21687;48.900;9.188;2023-07-20T03:50:49;6.17;;;2.63;;
35578;SDS011;21687;48.900;9.188;2023-07-20T03:53:16;2.90;;;1.90;;
35578;SDS011;21687;48.900;9.188;2023-07-20T03:55:46;3.80;;;3.03;;
35578;SDS011;21687;48.900;9.188;2023-07-20T03:58:17;3.10;;;2.40;;
35578;SDS011;21687;48.900;9.188;2023-07-20T04:00:47;3.33;;;2.23;;
35578;SDS011;21687;48.900;9.188;2023-07-20T04:03:16;3.43;;;2.37;;
35578;SDS011;21687;48.900;9.188;2023-07-20T04:05:44;3.30;;;2.53;;
35578;SDS011;21687;48.900;9.188;2023-07-20T04:08:10;2.70;;;2.20;;
35578;SDS011;21687;48.900;9.188;2023-07-20T04:10:37;2.43;;;2.17;;
35578;SDS011;21687;48.900;9.188;2023-07-20T04:13:04;2.50;;;2.20;;
35578;SDS011;21687;48.900;9.188;2023-07-20T04:15:31;4.47;;;2.30;;
35578;SDS011;21687;48.900;9.188;2023-07-20T04:17:58;4.17;;;2.47;;
35578;SDS011;21687;48.900;9.188;2023-07-20T04:20:26;3.47;;;2.30;;
35578;SDS011;21687;48.900;9.188;2023-07-20T04:22:52;2.53;;;2.17;;
35578;SDS011;21687;48.900;9.188;2023-07-20T04:25:19;5.53;;;2.50;;
35578;SDS011;21687;48.900;9.188;2023-07-20T04:27:45;4.57;;;2.57;;
35578;SDS011;21687;48.900;9.188;2023-07-20T04:30:11;2.83;;;2.10;;
35578;SDS011;21687;48.900;9.188;2023-07-20T04:32:39;2.90;;;2.13;;
35578;SDS011;21687;48.900;9.188;2023-07-20T04:35:10;6.47;;;2.30;;
35578;SDS011;21687;48.900;9.188;2023-07-20T04:37:41;6.17;;;2.60;;
35578;SDS011;21687;48.900;9.188;2023-07-20T04:40:11;3.20;;;2.07;;
35578;SDS011;21687;48.900;9.188;2023-07-20T04:42:40;3.27;;;2.10;;
35578;SDS011;21687;48.900;9.188;2023-07-20T04:45:07;5.20;;;2.40;;
35578;SDS011;21687;48.900;9.188;2023-07-20T04:47:33;3.77;;;2.37;;
35578;SDS011;21687;48.900;9.188;2023-07-20T04:50:00;3.13;;;2.10;;
35578;SDS011;21687;48.900;9.188;2023-07-20T04:52:27;3.47;;;2.30;;
35578;SDS011;21687;48.900;9.188;2023-07-20T04:54:53;3.00;;;2.30;;
35578;SDS011;21687;48.900;9.188;2023-07-20T04:57:20;4.97;;;2.30;;
35578;SDS011;21687;48.900;9.188;2023-07-20T04:59:50;5.00;;;2.37;;
35578;SDS011;21687;48.900;9.188;2023-07-20T05:02:17;1.90;;;1.77;;
35578;SDS011;21687;48.900;9.188;2023-07-20T05:04:44;2.27;;;1.97;;
35578;SDS011;21687;48.900;9.188;2023-07-20T05:07:10;2.70;;;1.90;;
35578;SDS011;21687;48.900;9.188;2023-07-20T05:09:36;3.00;;;2.00;;
35578;SDS011;21687;48.900;9.188;2023-07-20T05:12:03;3.30;;;2.00;;
35578;SDS011;21687;48.900;9.188;2023-07-20T05:14:29;3.53;;;2.00;;
35578;SDS011;21687;48.900;9.188;2023-07-20T05:16:56;2.30;;;2.10;;
35578;SDS011;21687;48.900;9.188;2023-07-20T05:19:22;2.87;;;2.00;;
35578;SDS011;21687;48.900;9.188;2023-07-20T05:21:51;4.07;;;2.10;;
35578;SDS011;21687;48.900;9.188;2023-07-20T05:24:17;4.13;;;2.00;;
35578;SDS011;21687;48.900;9.188;2023-07-20T05:26:43;3.47;;;1.97;;
35578;SDS011;21687;48.900;9.188;2023-07-20T05:29:09;2.53;;;1.80;;
35578;SDS011;21687;48.900;9.188;2023-07-20T05:31:36;3.10;;;1.87;;
35578;SDS011;21687;48.900;9.188;2023-07-20T05:34:02;5.63;;;2.10;;
35578;SDS011;21687;48.900;9.188;2023-07-20T05:36:29;2.67;;;2.17;;
35578;SDS011;21687;48.900;9.188;2023-07-20T05:38:56;2.03;;;1.83;;
35578;SDS011;21687;48.900;9.188;2023-07-20T05:41:22;3.37;;;2.30;;
35578;SDS011;21687;48.900;9.188;2023-07-20T05:43:48;3.50;;;2.40;;
35578;SDS011;21687;48.900;9.188;2023-07-20T05:46:15;4.43;;;2.20;;
35578;SDS011;21687;48.900;9.188;2023-07-20T05:48:41;4.63;;;2.00;;
35578;SDS011;21687;48.900;9.188;2023-07-20T05:51:08;2.47;;;1.90;;
35578;SDS011;21687;48.900;9.188;2023-07-20T05:53:35;2.07;;;1.80;;
35578;SDS011;21687;48.900;9.188;2023-07-20T05:56:01;2.10;;;1.90;;
35578;SDS011;21687;48.900;9.188;2023-07-20T05:58:28;4.70;;;1.93;;
35578;SDS011;21687;48.900;9.188;2023-07-20T06:00:54;2.43;;;2.13;;
35578;SDS011;21687;48.900;9.188;2023-07-20T06:03:21;5.33;;;2.20;;
35578;SDS011;21687;48.900;9.188;2023-07-20T06:05:47;2.90;;;2.20;;
35578;SDS011;21687;48.900;9.188;2023-07-20T06:08:13;4.10;;;2.20;;
35578;SDS011;21687;48.900;9.188;2023-07-20T06:10:40;3.00;;;2.27;;
35578;SDS011;21687;48.900;9.188;2023-07-20T06:13:06;3.17;;;1.93;;
35578;SDS011;21687;48.900;9.188;2023-07-20T06:15:32;3.23;;;2.13;;
35578;SDS011;21687;48.900;9.188;2023-07-20T06:18:03;5.27;;;2.10;;
35578;SDS011;21687;48.900;9.188;2023-07-20T06:20:29;7.73;;;2.13;;
35578;SDS011;21687;48.900;9.188;2023-07-20T06:22:56;4.10;;;1.80;;
35578;SDS011;21687;48.900;9.188;2023-07-20T06:25:22;2.60;;;1.80;;
35578;SDS011;21687;48.900;9.188;2023-07-20T06:27:49;3.17;;;2.27;;
35578;SDS011;21687;48.900;9.188;2023-07-20T06:30:19;2.30;;;1.97;;
35578;SDS011;21687;48.900;9.188;2023-07-20T06:32:45;3.20;;;1.90;;
35578;SDS011;21687;48.900;9.188;2023-07-20T06:35:12;4.93;;;1.87;;
35578;SDS011;21687;48.900;9.188;2023-07-20T06:37:39;2.77;;;2.10;;
35578;SDS011;21687;48.900;9.188;2023-07-20T06:40:05;5.77;;;2.20;;
35578;SDS011;21687;48.900;9.188;2023-07-20T06:42:34;4.53;;;2.07;;
35578;SDS011;21687;48.900;9.188;2023-07-20T06:45:00;2.90;;;1.90;;
35578;SDS011;21687;48.900;9.188;2023-07-20T06:47:27;3.70;;;1.87;;
35578;SDS011;21687;48.900;9.188;2023-07-20T06:49:53;5.23;;;1.83;;
35578;SDS011;21687;48.900;9.188;2023-07-20T06:52:19;5.60;;;1.90;;
35578;SDS011;21687;48.900;9.188;2023-07-20T06:54:45;3.43;;;1.97;;
35578;SDS011;21687;48.900;9.188;2023-07-20T06:57:12;2.80;;;2.00;;
35578;SDS011;21687;48.900;9.188;2023-07-20T06:59:38;3.87;;;2.00;;
35578;SDS011;21687;48.900;9.188;2023-07-20T07:02:05;3.17;;;2.00;;
35578;SDS011;21687;48.900;9.188;2023-07-20T07:04:31;2.10;;;1.70;;
35578;SDS011;21687;48.900;9.188;2023-07-20T07:06:58;6.10;;;2.10;;
35578;SDS011;21687;48.900;9.188;2023-07-20T07:09:25;2.37;;;1.93;;
35578;SDS011;21687;48.900;9.188;2023-07-20T07:11:51;4.20;;;2.10;;
35578;SDS011;21687;48.900;9.188;2023-07-20T07:14:20;4.63;;;2.40;;
35578;SDS011;21687;48.900;9.188;2023-07-20T07:16:47;3.63;;;1.90;;
35578;SDS011;21687;48.900;9.188;2023-07-20T07:19:13;3.70;;;2.17;;
35578;SDS011;21687;48.900;9.188;2023-07-20T07:21:40;2.07;;;1.50;;
35578;SDS011;21687;48.900;9.188;2023-07-20T07:24:06;2.90;;;1.97;;
35578;SDS011;21687;48.900;9.188;2023-07-20T07:26:36;5.50;;;1.80;;
35578;SDS011;21687;48.900;9.188;2023-07-20T07:29:03;3.17;;;2.23;;
35578;SDS011;21687;48.900;9.188;2023-07-20T07:31:29;4.23;;;2.30;;
35578;SDS011;21687;48.900;9.188;2023-07-20T07:33:58;2.30;;;1.77;;
35578;SDS011;21687;48.900;9.188;2023-07-20T07:36:25;2.47;;;2.00;;
35578;SDS011;21687;48.900;9.188;2023-07-20T07:38:51;3.80;;;1.77;;
35578;SDS011;21687;48.900;9.188;2023-07-20T07:41:17;4.00;;;1.70;;
35578;SDS011;21687;48.900;9.188;2023-07-20T07:43:43;3.30;;;1.90;;
35578;SDS011;21687;48.900;9.188;2023-07-20T07:46:10;3.37;;;1.83;;
35578;SDS011;21687;48.900;9.188;2023-07-20T07:48:36;4.03;;;2.17;;
35578;SDS011;21687;48.900;9.188;2023-07-20T07:51:02;2.43;;;1.97;;
35578;SDS011;21687;48.900;9.188;2023-07-20T07:53:29;2.67;;;1.90;;
35578;SDS011;21687;48.900;9.188;2023-07-20T07:55:55;2.07;;;1.60;;
35578;SDS011;21687;48.900;9.188;2023-07-20T07:58:22;5.57;;;1.90;;
35578;SDS011;21687;48.900;9.188;2023-07-20T08:00:49;4.70;;;2.23;;
35578;SDS011;21687;48.900;9.188;2023-07-20T08:03:15;5.00;;;1.90;;
35578;SDS011;21687;48.900;9.188;2023-07-20T08:05:41;4.80;;;2.00;;
35578;SDS011;21687;48.900;9.188;2023-07-20T08:08:08;4.47;;;1.90;;
35578;SDS011;21687;48.900;9.188;2023-07-20T08:10:34;5.67;;;1.73;;
35578;SDS011;21687;48.900;9.188;2023-07-20T08:13:00;2.57;;;1.97;;
35578;SDS011;21687;48.900;9.188;2023-07-20T08:15:27;2.23;;;1.90;;
35578;SDS011;21687;48.900;9.188;2023-07-20T08:17:53;1.97;;;1.77;;
35578;SDS011;21687;48.900;9.188;2023-07-20T08:20:20;2.57;;;2.03;;
35578;SDS011;21687;48.900;9.188;2023-07-20T08:22:51;8.67;;;2.23;;
35578;SDS011;21687;48.900;9.188;2023-07-20T08:25:19;3.23;;;1.97;;
35578;SDS011;21687;48.900;9.188;2023-07-20T08:27:45;2.50;;;2.07;;
35578;SDS011;21687;48.900;9.188;2023-07-20T08:30:13;3.53;;;1.90;;
35578;SDS011;21687;48.900;9.188;2023-07-20T08:32:39;3.10;;;1.80;;
35578;SDS011;21687;48.900;9.188;2023-07-20T08:35:05;3.10;;;1.80;;
35578;SDS011;21687;48.900;9.188;2023-07-20T08:37:32;2.77;;;2.07;;
35578;SDS011;21687;48.900;9.188;2023-07-20T08:39:59;2.13;;;1.87;;
35578;SDS011;21687;48.900;9.188;2023-07-20T08:42:26;2.87;;;1.90;;
35578;SDS011;21687;48.900;9.188;2023-07-20T08:44:54;4.07;;;1.87;;
35578;SDS011;21687;48.900;9.188;2023-07-20T08:47:21;2.57;;;2.00;;
35578;SDS011;21687;48.900;9.188;2023-07-20T08:49:49;3.70;;;1.83;;
35578;SDS011;21687;48.900;9.188;2023-07-20T08:52:17;2.30;;;1.90;;
35578;SDS011;21687;48.900;9.188;2023-07-20T08:54:43;2.27;;;1.60;;
35578;SDS011;21687;48.900;9.188;2023-07-20T08:57:09;1.90;;;1.70;;
35578;SDS011;21687;48.900;9.188;2023-07-20T08:59:39;2.03;;;1.80;;
35578;SDS011;21687;48.900;9.188;2023-07-20T09:02:06;2.33;;;1.80;;
35578;SDS011;21687;48.900;9.188;2023-07-20T09:04:38;2.90;;;1.70;;
35578;SDS011;21687;48.900;9.188;2023-07-20T09:07:04;2.70;;;2.10;;
35578;SDS011;21687;48.900;9.188;2023-07-20T09:09:30;2.70;;;1.70;;
35578;SDS011;21687;48.900;9.188;2023-07-20T09:11:57;5.80;;;2.10;;
35578;SDS011;21687;48.900;9.188;2023-07-20T09:14:23;4.70;;;1.90;;
35578;SDS011;21687;48.900;9.188;2023-07-20T09:16:51;3.70;;;1.73;;
35578;SDS011;21687;48.900;9.188;2023-07-20T09:19:20;4.53;;;1.90;;
35578;SDS011;21687;48.900;9.188;2023-07-20T09:21:48;2.47;;;2.03;;
35578;SDS011;21687;48.900;9.188;2023-07-20T09:24:17;2.27;;;1.90;;
35578;SDS011;21687;48.900;9.188;2023-07-20T09:26:44;1.93;;;1.73;;
35578;SDS011;21687;48.900;9.188;2023-07-20T09:29:13;2.17;;;1.63;;
35578;SDS011;21687;48.900;9.188;2023-07-20T09:31:43;2.40;;;1.60;;
35578;SDS011;21687;48.900;9.188;2023-07-20T09:34:24;2.40;;;1.70;;
35578;SDS011;21687;48.900;9.188;2023-07-20T09:36:50;1.63;;;1.53;;
35578;SDS011;21687;48.900;9.188;2023-07-20T09:39:17;3.40;;;1.80;;
35578;SDS011;21687;48.900;9.188;2023-07-20T09:41:43;4.20;;;1.63;;
35578;SDS011;21687;48.900;9.188;2023-07-20T09:44:10;1.57;;;1.40;;
35578;SDS011;21687;48.900;9.188;2023-07-20T09:46:45;3.03;;;1.60;;
35578;SDS011;21687;48.900;9.188;2023-07-20T09:49:18;1.80;;;1.47;;
35578;SDS011;21687;48.900;9.188;2023-07-20T09:51:45;1.97;;;1.67;;
35578;SDS011;21687;48.900;9.188;2023-07-20T09:54:13;2.07;;;1.80;;
35578;SDS011;21687;48.900;9.188;2023-07-20T09:56:40;2.10;;;1.50;;
35578;SDS011;21687;48.900;9.188;2023-07-20T09:59:08;3.87;;;1.50;;
35578;SDS011;21687;48.900;9.188;2023-07-20T10:01:34;2.37;;;1.50;;
35578;SDS011;21687;48.900;9.188;2023-07-20T10:04:03;1.60;;;1.50;;
35578;SDS011;21687;48.900;9.188;2023-07-20T10:06:32;1.50;;;1.40;;
35578;SDS011;21687;48.900;9.188;2023-07-20T10:09:02;2.87;;;2.00;;
35578;SDS011;21687;48.900;9.188;2023-07-20T10:11:31;3.17;;;1.80;;
35578;SDS011;21687;48.900;9.188;2023-07-20T10:14:00;1.50;;;1.40;;
35578;SDS011;21687;48.900;9.188;2023-07-20T10:16:33;2.37;;;1.60;;
35578;SDS011;21687;48.900;9.188;2023-07-20T10:19:03;2.53;;;1.60;;
35578;SDS011;21687;48.900;9.188;2023-07-20T10:21:32;2.83;;;1.60;;
35578;SDS011;21687;48.900;9.188;2023-07-20T10:24:02;1.60;;;1.50;;
35578;SDS011;21687;48.900;9.188;2023-07-20T10:26:29;1.77;;;1.57;;
35578;SDS011;21687;48.900;9.188;2023-07-20T10:28:56;1.40;;;1.30;;
35578;SDS011;21687;48.900;9.188;2023-07-20T10:31:23;4.93;;;1.30;;
35578;SDS011;21687;48.900;9.188;2023-07-20T10:33:50;2.47;;;1.60;;
35578;SDS011;21687;48.900;9.188;2023-07-20T10:36:21;2.77;;;2.00;;
35578;SDS011;21687;48.900;9.188;2023-07-20T10:38:53;1.73;;;1.30;;
35578;SDS011;21687;48.900;9.188;2023-07-20T10:41:21;1.60;;;1.50;;
35578;SDS011;21687;48.900;9.188;2023-07-20T10:43:58;1.40;;;1.30;;
35578;SDS011;21687;48.900;9.188;2023-07-20T10:49:03;2.93;;;1.70;;
35578;SDS011;21687;48.900;9.188;2023-07-20T10:51:38;2.87;;;1.70;;
35578;SDS011;21687;48.900;9.188;2023-07-20T10:56:46;1.70;;;1.60;;
35578;SDS011;21687;48.900;9.188;2023-07-20T10:59:20;2.03;;;1.30;;
35578;SDS011;21687;48.900;9.188;2023-07-20T11:01:50;2.57;;;1.40;;
35578;SDS011;21687;48.900;9.188;2023-07-20T11:04:21;2.20;;;1.30;;
35578;SDS011;21687;48.900;9.188;2023-07-20T11:07:04;2.80;;;1.60;;
35578;SDS011;21687;48.900;9.188;2023-07-20T11:09:38;3.00;;;1.53;;
35578;SDS011;21687;48.900;9.188;2023-07-20T11:12:11;3.10;;;1.50;;
35578;SDS011;21687;48.900;9.188;2023-07-20T11:14:42;1.93;;;1.60;;
35578;SDS011;21687;48.900;9.188;2023-07-20T11:17:19;3.73;;;1.50;;
35578;SDS011;21687;48.900;9.188;2023-07-20T11:20:01;1.60;;;1.37;;
35578;SDS011;21687;48.900;9.188;2023-07-20T11:22:29;2.90;;;1.47;;
35578;SDS011;21687;48.900;9.188;2023-07-20T11:24:57;2.03;;;1.47;;
35578;SDS011;21687;48.900;9.188;2023-07-20T11:27:23;1.60;;;1.50;;
35578;SDS011;21687;48.900;9.188;2023-07-20T11:29:50;2.50;;;1.40;;
35578;SDS011;21687;48.900;9.188;2023-07-20T11:32:23;1.20;;;1.10;;
35578;SDS011;21687;48.900;9.188;2023-07-20T11:34:50;2.47;;;1.43;;
35578;SDS011;21687;48.900;9.188;2023-07-20T11:37:16;2.83;;;1.50;;
35578;SDS011;21687;48.900;9.188;2023-07-20T11:39:43;3.93;;;1.73;;
35578;SDS011;21687;48.900;9.188;2023-07-20T11:42:10;1.33;;;1.23;;
35578;SDS011;21687;48.900;9.188;2023-07-20T11:44:37;1.20;;;1.20;;
35578;SDS011;21687;48.900;9.188;2023-07-20T11:47:07;1.60;;;1.50;;
35578;SDS011;21687;48.900;9.188;2023-07-20T11:49:36;2.63;;;1.30;;
35578;SDS011;21687;48.900;9.188;2023-07-20T11:52:06;1.50;;;1.37;;
35578;SDS011;21687;48.900;9.188;2023-07-20T11:54:42;2.63;;;1.80;;
35578;SDS011;21687;48.900;9.188;2023-07-20T11:57:18;1.67;;;1.40;;
35578;SDS011;21687;48.900;9.188;2023-07-20T12:02:22;2.40;;;1.30;;
35578;SDS011;21687;48.900;9.188;2023-07-20T12:04:50;1.60;;;1.47;;
35578;SDS011;21687;48.900;9.188;2023-07-20T12:07:18;2.30;;;1.73;;
35578;SDS011;21687;48.900;9.188;2023-07-20T12:09:44;3.30;;;1.43;;
35578;SDS011;21687;48.900;9.188;2023-07-20T12:12:28;1.37;;;1.30;;
35578;SDS011;21687;48.900;9.188;2023-07-20T12:15:11;2.60;;;1.47;;
35578;SDS011;21687;48.900;9.188;2023-07-20T12:18:00;2.53;;;1.63;;
35578;SDS011;21687;48.900;9.188;2023-07-20T12:20:28;2.40;;;1.40;;
35578;SDS011;21687;48.900;9.188;2023-07-20T12:23:07;3.63;;;1.50;;
35578;SDS011;21687;48.900;9.188;2023-07-20T12:25:42;1.83;;;1.43;;
35578;SDS011;21687;48.900;9.188;2023-07-20T12:28:10;2.73;;;1.40;;
35578;SDS011;21687;48.900;9.188;2023-07-20T12:30:40;1.47;;;1.37;;
35578;SDS011;21687;48.900;9.188;2023-07-20T12:33:08;1.70;;;1.50;;
35578;SDS011;21687;48.900;9.188;2023-07-20T12:35:35;1.50;;;1.40;;
35578;SDS011;21687;48.900;9.188;2023-07-20T12:38:02;2.60;;;1.70;;
35578;SDS011;21687;48.900;9.188;2023-07-20T12:40:36;2.27;;;1.20;;
35578;SDS011;21687;48.900;9.188;2023-07-20T12:43:47;1.57;;;1.47;;
35578;SDS011;21687;48.900;9.188;2023-07-20T12:46:26;3.30;;;1.60;;
35578;SDS011;21687;48.900;9.188;2023-07-20T12:48:55;1.73;;;1.40;;
35578;SDS011;21687;48.900;9.188;2023-07-20T12:51:25;3.17;;;1.40;;
35578;SDS011;21687;48.900;9.188;2023-07-20T12:53:51;2.07;;;1.60;;
35578;SDS011;21687;48.900;9.188;2023-07-20T12:56:21;2.63;;;1.50;;
35578;SDS011;21687;48.900;9.188;2023-07-20T12:58:56;1.60;;;1.37;;
35578;SDS011;21687;48.900;9.188;2023-07-20T13:02:25;2.23;;;1.40;;
35578;SDS011;21687;48.900;9.188;2023-07-20T13:05:35;1.40;;;1.30;;
35578;SDS011;21687;48.900;9.188;2023-07-20T13:08:02;2.13;;;1.50;;
35578;SDS011;21687;48.900;9.188;2023-07-20T13:10:30;2.03;;;1.60;;
35578;SDS011;21687;48.900;9.188;2023-07-20T13:12:57;2.60;;;1.50;;
35578;SDS011;21687;48.900;9.188;2023-07-20T13:15:29;1.83;;;1.50;;
35578;SDS011;21687;48.900;9.188;2023-07-20T13:17:59;3.57;;;1.53;;
35578;SDS011;21687;48.900;9.188;2023-07-20T13:20:25;3.27;;;1.60;;
35578;SDS011;21687;48.900;9.188;2023-07-20T13:22:53;1.90;;;1.70;;
35578;SDS011;21687;48.900;9.188;2023-07-20T13:25:20;1.50;;;1.40;;
35578;SDS011;21687;48.900;9.188;2023-07-20T13:27:46;2.70;;;1.47;;
35578;SDS011;21687;48.900;9.188;2023-07-20T13:30:13;1.70;;;1.40;;
35578;SDS011;21687;48.900;9.188;2023-07-20T13:32:42;1.40;;;1.30;;
35578;SDS011;21687;48.900;9.188;2023-07-20T13:35:10;1.73;;;1.60;;
35578;SDS011;21687;48.900;9.188;2023-07-20T13:37:37;1.70;;;1.60;;
35578;SDS011;21687;48.900;9.188;2023-07-20T13:40:04;3.03;;;1.40;;
35578;SDS011;21687;48.900;9.188;2023-07-20T13:42:32;3.13;;;1.47;;
35578;SDS011;21687;48.900;9.188;2023-07-20T13:44:59;1.70;;;1.50;;
35578;SDS011;21687;48.900;9.188;2023-07-20T13:47:26;1.37;;;1.23;;
35578;SDS011;21687;48.900;9.188;2023-07-20T13:49:53;1.70;;;1.50;;
35578;SDS011;21687;48.900;9.188;2023-07-20T13:52:19;1.47;;;1.37;;
35578;SDS011;21687;48.900;9.188;2023-07-20T13:54:46;1.50;;;1.40;;
35578;SDS011;21687;48.900;9.188;2023-07-20T13:57:12;4.33;;;1.70;;
35578;SDS011;21687;48.900;9.188;2023-07-20T13:59:40;1.90;;;1.43;;
35578;SDS011;21687;48.900;9.188;2023-07-20T14:02:07;1.60;;;1.50;;
35578;SDS011;21687;48.900;9.188;2023-07-20T14:04:33;1.40;;;1.20;;
35578;SDS011;21687;48.900;9.188;2023-07-20T14:06:59;1.30;;;1.20;;
35578;SDS011;21687;48.900;9.188;2023-07-20T14:09:25;1.63;;;1.40;;
35578;SDS011;21687;48.900;9.188;2023-07-20T14:11:52;1.53;;;1.43;;
35578;SDS011;21687;48.900;9.188;2023-07-20T14:14:18;1.30;;;1.20;;
35578;SDS011;21687;48.900;9.188;2023-07-20T14:16:45;1.70;;;1.40;;
35578;SDS011;21687;48.900;9.188;2023-07-20T14:19:11;4.00;;;1.40;;
35578;SDS011;21687;48.900;9.188;2023-07-20T14:21:38;2.53;;;1.40;;
35578;SDS011;21687;48.900;9.188;2023-07-20T14:24:04;1.77;;;1.33;;
35578;SDS011;21687;48.900;9.188;2023-07-20T14:26:31;1.50;;;1.40;;
35578;SDS011;21687;48.900;9.188;2023-07-20T14:28:57;1.40;;;1.30;;
35578;SDS011;21687;48.900;9.188;2023-07-20T14:31:23;2.43;;;1.40;;
35578;SDS011;21687;48.900;9.188;2023-07-20T14:33:50;1.50;;;1.37;;
35578;SDS011;21687;48.900;9.188;2023-07-20T14:36:16;2.00;;;1.50;;
35578;SDS011;21687;48.900;9.188;2023-07-20T14:38:43;1.40;;;1.30;;
35578;SDS011;21687;48.900;9.188;2023-07-20T14:41:09;1.40;;;1.30;;
35578;SDS011;21687;48.900;9.188;2023-07-20T14:43:37;1.87;;;1.33;;
35578;SDS011;21687;48.900;9.188;2023-07-20T14:46:03;1.87;;;1.60;;
35578;SDS011;21687;48.900;9.188;2023-07-20T14:48:30;4.57;;;1.70;;
35578;SDS011;21687;48.900;9.188;2023-07-20T14:50:57;2.03;;;1.60;;
35578;SDS011;21687;48.900;9.188;2023-07-20T14:53:23;1.40;;;1.30;;
35578;SDS011;21687;48.900;9.188;2023-07-20T14:55:58;3.10;;;1.70;;
35578;SDS011;21687;48.900;9.188;2023-07-20T14:58:27;1.53;;;1.40;;
35578;SDS011;21687;48.900;9.188;2023-07-20T15:00:54;2.03;;;1.93;;
35578;SDS011;21687;48.900;9.188;2023-07-20T15:03:20;2.20;;;1.60;;
35578;SDS011;21687;48.900;9.188;2023-07-20T15:05:47;3.03;;;1.50;;
35578;SDS011;21687;48.900;9.188;2023-07-20T15:08:13;1.80;;;1.70;;
35578;SDS011;21687;48.900;9.188;2023-07-20T15:10:40;1.23;;;1.23;;